sensor_id;sensor_type;location;lat;lon;timestamp;P1;P2;P0
78408;PMS5003;67697;50.750;-3.270;2023-02-28T00:02:00;10;9;
78408;PMS5003;67697;50.750;-3.270;2023-02-28T00:04:25;10;10;
78408;PMS5003;67697;50.750;-3.270;2023-02-28T00:06:51;9;9;
78408;PMS5003;67697;50.750;-3.270;2023-02-28T00:09:16;9;6;
78408;PMS5003;67697;50.750;-3.270;2023-02-28T00:11:42;10;8;
78408;PMS5003;67697;50.750;-3.270;2023-02-28T00:14:07;8;6;
78408;PMS5003;67697;50.750;-3.270;2023-02-28T00:16:33;9;9;
78408;PMS5003;67697;50.750;-3.270;2023-02-28T00:18:58;17;12;
78408;PMS5003;67697;50.750;-3.270;2023-02-28T00:21:23;10;9;
78408;PMS5003;67697;50.750;-3.270;2023-02-28T00:23:49;8;8;
78408;PMS5003;67697;50.750;-3.270;2023-02-28T00:26:15;12;12;
78408;PMS5003;67697;50.750;-3.270;2023-02-28T00:28:41;9;8;
78408;PMS5003;67697;50.750;-3.270;2023-02-28T00:31:07;8;8;
78408;PMS5003;67697;50.750;-3.270;2023-02-28T00:33:32;15;11;
78408;PMS5003;67697;50.750;-3.270;2023-02-28T00:36:01;12;8;
78408;PMS5003;67697;50.750;-3.270;2023-02-28T00:38:22;6;6;
78408;PMS5003;67697;50.750;-3.270;2023-02-28T00:40:48;9;9;
78408;PMS5003;67697;50.750;-3.270;2023-02-28T00:43:14;11;11;
78408;PMS5003;67697;50.750;-3.270;2023-02-28T00:45:40;8;8;
78408;PMS5003;67697;50.750;-3.270;2023-02-28T00:48:05;17;12;
78408;PMS5003;67697;50.750;-3.270;2023-02-28T00:50:31;12;9;
78408;PMS5003;67697;50.750;-3.270;2023-02-28T00:52:57;19;11;
78408;PMS5003;67697;50.750;-3.270;2023-02-28T00:55:22;12;12;
78408;PMS5003;67697;50.750;-3.270;2023-02-28T00:57:47;16;11;
78408;PMS5003;67697;50.750;-3.270;2023-02-28T01:00:13;18;12;
78408;PMS5003;67697;50.750;-3.270;2023-02-28T01:02:38;12;11;
78408;PMS5003;67697;50.750;-3.270;2023-02-28T01:05:04;12;9;
78408;PMS5003;67697;50.750;-3.270;2023-02-28T01:07:29;8;8;
78408;PMS5003;67697;50.750;-3.270;2023-02-28T01:09:55;9;8;
78408;PMS5003;67697;50.750;-3.270;2023-02-28T01:12:20;8;8;
78408;PMS5003;67697;50.750;-3.270;2023-02-28T01:14:45;9;8;
78408;PMS5003;67697;50.750;-3.270;2023-02-28T01:17:11;11;8;
78408;PMS5003;67697;50.750;-3.270;2023-02-28T01:19:36;9;9;
78408;PMS5003;67697;50.750;-3.270;2023-02-28T01:22:02;9;6;
78408;PMS5003;67697;50.750;-3.270;2023-02-28T01:24:27;6;6;
78408;PMS5003;67697;50.750;-3.270;2023-02-28T01:26:52;11;6;
78408;PMS5003;67697;50.750;-3.270;2023-02-28T01:29:18;11;8;
78408;PMS5003;67697;50.750;-3.270;2023-02-28T01:31:43;9;8;
78408;PMS5003;67697;50.750;-3.270;2023-02-28T01:34:09;15;9;
78408;PMS5003;67697;50.750;-3.270;2023-02-28T01:36:34;6;6;
78408;PMS5003;67697;50.750;-3.270;2023-02-28T01:38:59;9;9;
78408;PMS5003;67697;50.750;-3.270;2023-02-28T01:41:25;13;13;
78408;PMS5003;67697;50.750;-3.270;2023-02-28T01:43:53;6;5;
78408;PMS5003;67697;50.750;-3.270;2023-02-28T01:46:16;13;12;
78408;PMS5003;67697;50.750;-3.270;2023-02-28T01:48:42;12;11;
78408;PMS5003;67697;50.750;-3.270;2023-02-28T01:51:08;13;11;
78408;PMS5003;67697;50.750;-3.270;2023-02-28T01:53:34;13;11;
78408;PMS5003;67697;50.750;-3.270;2023-02-28T01:55:58;15;12;
78408;PMS5003;67697;50.750;-3.270;2023-02-28T01:58:24;9;6;
78408;PMS5003;67697;50.750;-3.270;2023-02-28T02:00:49;15;11;
78408;PMS5003;67697;50.750;-3.270;2023-02-28T02:03:16;13;11;
78408;PMS5003;67697;50.750;-3.270;2023-02-28T02:05:40;8;8;
78408;PMS5003;67697;50.750;-3.270;2023-02-28T02:08:06;10;10;
78408;PMS5003;67697;50.750;-3.270;2023-02-28T02:10:32;13;12;
78408;PMS5003;67697;50.750;-3.270;2023-02-28T02:13:00;12;10;
78408;PMS5003;67697;50.750;-3.270;2023-02-28T02:15:22;10;9;
78408;PMS5003;67697;50.750;-3.270;2023-02-28T02:17:48;12;10;
78408;PMS5003;67697;50.750;-3.270;2023-02-28T02:20:16;12;10;
78408;PMS5003;67697;50.750;-3.270;2023-02-28T02:25:08;19;16;
78408;PMS5003;67697;50.750;-3.270;2023-02-28T02:27:37;20;17;
78408;PMS5003;67697;50.750;-3.270;2023-02-28T02:32:28;17;13;
78408;PMS5003;67697;50.750;-3.270;2023-02-28T02:34:49;19;15;
78408;PMS5003;67697;50.750;-3.270;2023-02-28T02:37:14;13;12;
78408;PMS5003;67697;50.750;-3.270;2023-02-28T02:39:40;12;12;
78408;PMS5003;67697;50.750;-3.270;2023-02-28T02:42:04;13;9;
78408;PMS5003;67697;50.750;-3.270;2023-02-28T02:44:30;11;8;
78408;PMS5003;67697;50.750;-3.270;2023-02-28T02:46:56;15;12;
78408;PMS5003;67697;50.750;-3.270;2023-02-28T02:49:21;9;8;
78408;PMS5003;67697;50.750;-3.270;2023-02-28T02:51:45;12;11;
78408;PMS5003;67697;50.750;-3.270;2023-02-28T02:54:12;11;11;
78408;PMS5003;67697;50.750;-3.270;2023-02-28T02:56:37;12;11;
78408;PMS5003;67697;50.750;-3.270;2023-02-28T02:59:03;19;14;
78408;PMS5003;67697;50.750;-3.270;2023-02-28T03:01:27;14;11;
78408;PMS5003;67697;50.750;-3.270;2023-02-28T03:03:52;15;14;
78408;PMS5003;67697;50.750;-3.270;2023-02-28T03:06:17;11;9;
78408;PMS5003;67697;50.750;-3.270;2023-02-28T03:08:43;9;9;
78408;PMS5003;67697;50.750;-3.270;2023-02-28T03:11:11;11;9;
78408;PMS5003;67697;50.750;-3.270;2023-02-28T03:13:37;12;9;
78408;PMS5003;67697;50.750;-3.270;2023-02-28T03:16:01;11;9;
78408;PMS5003;67697;50.750;-3.270;2023-02-28T03:18:24;14;10;
78408;PMS5003;67697;50.750;-3.270;2023-02-28T03:20:49;8;8;
78408;PMS5003;67697;50.750;-3.270;2023-02-28T03:23:16;7;7;
78408;PMS5003;67697;50.750;-3.270;2023-02-28T03:25:42;12;8;
78408;PMS5003;67697;50.750;-3.270;2023-02-28T03:28:07;9;8;
78408;PMS5003;67697;50.750;-3.270;2023-02-28T03:30:33;15;12;
78408;PMS5003;67697;50.750;-3.270;2023-02-28T03:32:56;8;8;
78408;PMS5003;67697;50.750;-3.270;2023-02-28T03:35:21;8;8;
78408;PMS5003;67697;50.750;-3.270;2023-02-28T03:37:46;8;7;
78408;PMS5003;67697;50.750;-3.270;2023-02-28T03:40:13;15;14;
78408;PMS5003;67697;50.750;-3.270;2023-02-28T03:42:37;5;5;
78408;PMS5003;67697;50.750;-3.270;2023-02-28T03:45:02;14;11;
78408;PMS5003;67697;50.750;-3.270;2023-02-28T03:47:28;12;11;
78408;PMS5003;67697;50.750;-3.270;2023-02-28T03:49:53;9;8;
78408;PMS5003;67697;50.750;-3.270;2023-02-28T03:52:18;8;8;
78408;PMS5003;67697;50.750;-3.270;2023-02-28T03:54:44;8;8;
78408;PMS5003;67697;50.750;-3.270;2023-02-28T03:57:10;12;9;
78408;PMS5003;67697;50.750;-3.270;2023-02-28T03:59:34;14;14;
78408;PMS5003;67697;50.750;-3.270;2023-02-28T04:01:58;21;14;
78408;PMS5003;67697;50.750;-3.270;2023-02-28T04:04:23;12;11;
78408;PMS5003;67697;50.750;-3.270;2023-02-28T04:06:49;11;11;
78408;PMS5003;67697;50.750;-3.270;2023-02-28T04:09:13;11;9;
78408;PMS5003;67697;50.750;-3.270;2023-02-28T04:11:39;8;8;
78408;PMS5003;67697;50.750;-3.270;2023-02-28T04:14:05;12;12;
78408;PMS5003;67697;50.750;-3.270;2023-02-28T04:16:29;14;10;
78408;PMS5003;67697;50.750;-3.270;2023-02-28T04:18:54;14;12;
78408;PMS5003;67697;50.750;-3.270;2023-02-28T04:21:20;18;14;
78408;PMS5003;67697;50.750;-3.270;2023-02-28T04:23:45;18;14;
78408;PMS5003;67697;50.750;-3.270;2023-02-28T04:26:10;12;11;
78408;PMS5003;67697;50.750;-3.270;2023-02-28T04:28:36;14;12;
78408;PMS5003;67697;50.750;-3.270;2023-02-28T04:31:01;23;11;
78408;PMS5003;67697;50.750;-3.270;2023-02-28T04:33:26;17;11;
78408;PMS5003;67697;50.750;-3.270;2023-02-28T04:38:16;11;10;
78408;PMS5003;67697;50.750;-3.270;2023-02-28T04:40:41;11;11;
78408;PMS5003;67697;50.750;-3.270;2023-02-28T04:43:06;11;8;
78408;PMS5003;67697;50.750;-3.270;2023-02-28T04:45:31;10;10;
78408;PMS5003;67697;50.750;-3.270;2023-02-28T04:47:56;18;12;
78408;PMS5003;67697;50.750;-3.270;2023-02-28T04:50:21;15;14;
78408;PMS5003;67697;50.750;-3.270;2023-02-28T04:52:47;21;18;
78408;PMS5003;67697;50.750;-3.270;2023-02-28T04:55:12;17;14;
78408;PMS5003;67697;50.750;-3.270;2023-02-28T04:57:37;21;17;
78408;PMS5003;67697;50.750;-3.270;2023-02-28T05:00:03;18;13;
78408;PMS5003;67697;50.750;-3.270;2023-02-28T05:02:28;14;14;
78408;PMS5003;67697;50.750;-3.270;2023-02-28T05:04:53;16;13;
78408;PMS5003;67697;50.750;-3.270;2023-02-28T05:07:18;18;15;
78408;PMS5003;67697;50.750;-3.270;2023-02-28T05:09:43;18;14;
78408;PMS5003;67697;50.750;-3.270;2023-02-28T05:12:09;18;16;
78408;PMS5003;67697;50.750;-3.270;2023-02-28T05:14:34;13;13;
78408;PMS5003;67697;50.750;-3.270;2023-02-28T05:16:59;18;14;
78408;PMS5003;67697;50.750;-3.270;2023-02-28T05:19:25;23;17;
78408;PMS5003;67697;50.750;-3.270;2023-02-28T05:21:51;20;14;
78408;PMS5003;67697;50.750;-3.270;2023-02-28T05:24:15;17;16;
78408;PMS5003;67697;50.750;-3.270;2023-02-28T05:26:41;19;16;
78408;PMS5003;67697;50.750;-3.270;2023-02-28T05:29:06;16;13;
78408;PMS5003;67697;50.750;-3.270;2023-02-28T05:31:32;14;13;
78408;PMS5003;67697;50.750;-3.270;2023-02-28T05:33:57;17;17;
78408;PMS5003;67697;50.750;-3.270;2023-02-28T05:36:22;11;11;
78408;PMS5003;67697;50.750;-3.270;2023-02-28T05:38:47;18;17;
78408;PMS5003;67697;50.750;-3.270;2023-02-28T05:41:12;17;14;
78408;PMS5003;67697;50.750;-3.270;2023-02-28T05:43:37;20;15;
78408;PMS5003;67697;50.750;-3.270;2023-02-28T05:46:03;16;16;
78408;PMS5003;67697;50.750;-3.270;2023-02-28T05:48:28;18;18;
78408;PMS5003;67697;50.750;-3.270;2023-02-28T05:50:53;20;18;
78408;PMS5003;67697;50.750;-3.270;2023-02-28T05:53:18;16;13;
78408;PMS5003;67697;50.750;-3.270;2023-02-28T05:55:43;13;13;
78408;PMS5003;67697;50.750;-3.270;2023-02-28T05:58:09;18;14;
78408;PMS5003;67697;50.750;-3.270;2023-02-28T06:00:34;18;14;
78408;PMS5003;67697;50.750;-3.270;2023-02-28T06:03:00;12;12;
78408;PMS5003;67697;50.750;-3.270;2023-02-28T06:05:25;14;11;
78408;PMS5003;67697;50.750;-3.270;2023-02-28T06:07:50;14;10;
78408;PMS5003;67697;50.750;-3.270;2023-02-28T06:10:16;12;12;
78408;PMS5003;67697;50.750;-3.270;2023-02-28T06:12:40;11;10;
78408;PMS5003;67697;50.750;-3.270;2023-02-28T06:15:06;14;9;
78408;PMS5003;67697;50.750;-3.270;2023-02-28T06:17:31;12;12;
78408;PMS5003;67697;50.750;-3.270;2023-02-28T06:19:56;12;12;
78408;PMS5003;67697;50.750;-3.270;2023-02-28T06:22:21;8;7;
78408;PMS5003;67697;50.750;-3.270;2023-02-28T06:24:46;15;12;
78408;PMS5003;67697;50.750;-3.270;2023-02-28T06:27:11;19;19;
78408;PMS5003;67697;50.750;-3.270;2023-02-28T06:29:37;24;17;
78408;PMS5003;67697;50.750;-3.270;2023-02-28T06:32:02;15;14;
78408;PMS5003;67697;50.750;-3.270;2023-02-28T06:34:28;22;22;
78408;PMS5003;67697;50.750;-3.270;2023-02-28T06:36:53;25;21;
78408;PMS5003;67697;50.750;-3.270;2023-02-28T06:39:19;33;26;
78408;PMS5003;67697;50.750;-3.270;2023-02-28T06:41:44;39;29;
78408;PMS5003;67697;50.750;-3.270;2023-02-28T06:44:11;42;26;
78408;PMS5003;67697;50.750;-3.270;2023-02-28T06:46:34;29;29;
78408;PMS5003;67697;50.750;-3.270;2023-02-28T06:48:59;33;27;
78408;PMS5003;67697;50.750;-3.270;2023-02-28T06:51:25;25;24;
78408;PMS5003;67697;50.750;-3.270;2023-02-28T06:53:50;31;27;
78408;PMS5003;67697;50.750;-3.270;2023-02-28T06:56:16;20;20;
78408;PMS5003;67697;50.750;-3.270;2023-02-28T06:58:41;12;11;
78408;PMS5003;67697;50.750;-3.270;2023-02-28T07:01:06;10;10;
78408;PMS5003;67697;50.750;-3.270;2023-02-28T07:03:31;14;11;
78408;PMS5003;67697;50.750;-3.270;2023-02-28T07:05:56;17;14;
78408;PMS5003;67697;50.750;-3.270;2023-02-28T07:08:21;8;7;
78408;PMS5003;67697;50.750;-3.270;2023-02-28T07:10:46;10;10;
78408;PMS5003;67697;50.750;-3.270;2023-02-28T07:13:11;7;7;
78408;PMS5003;67697;50.750;-3.270;2023-02-28T07:15:37;8;5;
78408;PMS5003;67697;50.750;-3.270;2023-02-28T07:18:02;10;8;
78408;PMS5003;67697;50.750;-3.270;2023-02-28T07:20:27;11;11;
78408;PMS5003;67697;50.750;-3.270;2023-02-28T07:22:52;11;8;
78408;PMS5003;67697;50.750;-3.270;2023-02-28T07:25:17;10;8;
78408;PMS5003;67697;50.750;-3.270;2023-02-28T07:27:42;18;10;
78408;PMS5003;67697;50.750;-3.270;2023-02-28T07:30:08;14;8;
78408;PMS5003;67697;50.750;-3.270;2023-02-28T07:32:32;7;7;
78408;PMS5003;67697;50.750;-3.270;2023-02-28T07:34:58;7;7;
78408;PMS5003;67697;50.750;-3.270;2023-02-28T07:37:23;11;7;
78408;PMS5003;67697;50.750;-3.270;2023-02-28T07:39:48;10;10;
78408;PMS5003;67697;50.750;-3.270;2023-02-28T07:42:14;14;11;
78408;PMS5003;67697;50.750;-3.270;2023-02-28T07:44:39;8;7;
78408;PMS5003;67697;50.750;-3.270;2023-02-28T07:47:04;7;7;
78408;PMS5003;67697;50.750;-3.270;2023-02-28T07:49:29;8;7;
78408;PMS5003;67697;50.750;-3.270;2023-02-28T07:51:54;7;5;
78408;PMS5003;67697;50.750;-3.270;2023-02-28T07:54:19;12;8;
78408;PMS5003;67697;50.750;-3.270;2023-02-28T07:56:45;8;7;
78408;PMS5003;67697;50.750;-3.270;2023-02-28T07:59:09;8;8;
78408;PMS5003;67697;50.750;-3.270;2023-02-28T08:01:35;8;7;
78408;PMS5003;67697;50.750;-3.270;2023-02-28T08:04:00;9;7;
78408;PMS5003;67697;50.750;-3.270;2023-02-28T08:06:26;5;5;
78408;PMS5003;67697;50.750;-3.270;2023-02-28T08:08:52;5;5;
78408;PMS5003;67697;50.750;-3.270;2023-02-28T08:11:17;5;5;
78408;PMS5003;67697;50.750;-3.270;2023-02-28T08:13:43;7;7;
78408;PMS5003;67697;50.750;-3.270;2023-02-28T08:16:08;5;4;
78408;PMS5003;67697;50.750;-3.270;2023-02-28T08:18:34;5;5;
78408;PMS5003;67697;50.750;-3.270;2023-02-28T08:21:04;8;4;
78408;PMS5003;67697;50.750;-3.270;2023-02-28T08:23:24;14;8;
78408;PMS5003;67697;50.750;-3.270;2023-02-28T08:25:53;8;8;
78408;PMS5003;67697;50.750;-3.270;2023-02-28T08:28:16;6;6;
78408;PMS5003;67697;50.750;-3.270;2023-02-28T08:30:41;9;6;
78408;PMS5003;67697;50.750;-3.270;2023-02-28T08:33:07;4;4;
78408;PMS5003;67697;50.750;-3.270;2023-02-28T08:35:35;5;5;
78408;PMS5003;67697;50.750;-3.270;2023-02-28T08:37:58;5;5;
78408;PMS5003;67697;50.750;-3.270;2023-02-28T08:40:24;13;9;
78408;PMS5003;67697;50.750;-3.270;2023-02-28T08:42:50;5;5;
78408;PMS5003;67697;50.750;-3.270;2023-02-28T08:45:15;9;9;
78408;PMS5003;67697;50.750;-3.270;2023-02-28T08:47:40;21;12;
78408;PMS5003;67697;50.750;-3.270;2023-02-28T08:50:06;9;9;
78408;PMS5003;67697;50.750;-3.270;2023-02-28T08:52:31;9;8;
78408;PMS5003;67697;50.750;-3.270;2023-02-28T08:54:57;10;5;
78408;PMS5003;67697;50.750;-3.270;2023-02-28T08:57:22;5;5;
78408;PMS5003;67697;50.750;-3.270;2023-02-28T08:59:47;5;5;
78408;PMS5003;67697;50.750;-3.270;2023-02-28T09:02:13;10;8;
78408;PMS5003;67697;50.750;-3.270;2023-02-28T09:04:38;5;5;
78408;PMS5003;67697;50.750;-3.270;2023-02-28T09:07:04;62;41;
78408;PMS5003;67697;50.750;-3.270;2023-02-28T09:09:30;9;6;
78408;PMS5003;67697;50.750;-3.270;2023-02-28T09:11:55;8;5;
78408;PMS5003;67697;50.750;-3.270;2023-02-28T09:14:21;10;8;
78408;PMS5003;67697;50.750;-3.270;2023-02-28T09:16:46;8;6;
78408;PMS5003;67697;50.750;-3.270;2023-02-28T09:19:12;8;6;
78408;PMS5003;67697;50.750;-3.270;2023-02-28T09:21:36;5;5;
78408;PMS5003;67697;50.750;-3.270;2023-02-28T09:24:02;6;4;
78408;PMS5003;67697;50.750;-3.270;2023-02-28T09:26:28;5;4;
78408;PMS5003;67697;50.750;-3.270;2023-02-28T09:28:54;17;9;
78408;PMS5003;67697;50.750;-3.270;2023-02-28T09:31:19;9;5;
78408;PMS5003;67697;50.750;-3.270;2023-02-28T09:33:44;2;2;
78408;PMS5003;67697;50.750;-3.270;2023-02-28T09:36:10;3;2;
78408;PMS5003;67697;50.750;-3.270;2023-02-28T09:38:36;6;6;
78408;PMS5003;67697;50.750;-3.270;2023-02-28T09:41:03;5;3;
78408;PMS5003;67697;50.750;-3.270;2023-02-28T09:43:28;5;5;
78408;PMS5003;67697;50.750;-3.270;2023-02-28T09:45:54;13;7;
78408;PMS5003;67697;50.750;-3.270;2023-02-28T09:48:20;6;5;
78408;PMS5003;67697;50.750;-3.270;2023-02-28T09:50:46;1;1;
78408;PMS5003;67697;50.750;-3.270;2023-02-28T09:53:13;5;3;
78408;PMS5003;67697;50.750;-3.270;2023-02-28T09:55:37;6;5;
78408;PMS5003;67697;50.750;-3.270;2023-02-28T09:58:02;5;3;
78408;PMS5003;67697;50.750;-3.270;2023-02-28T10:00:30;2;2;
78408;PMS5003;67697;50.750;-3.270;2023-02-28T10:02:59;3;3;
78408;PMS5003;67697;50.750;-3.270;2023-02-28T10:05:20;3;3;
78408;PMS5003;67697;50.750;-3.270;2023-02-28T10:07:50;3;3;
78408;PMS5003;67697;50.750;-3.270;2023-02-28T10:10:15;6;3;
78408;PMS5003;67697;50.750;-3.270;2023-02-28T10:12:37;3;3;
78408;PMS5003;67697;50.750;-3.270;2023-02-28T10:15:03;5;3;
78408;PMS5003;67697;50.750;-3.270;2023-02-28T10:17:29;5;3;
78408;PMS5003;67697;50.750;-3.270;2023-02-28T10:19:57;3;3;
78408;PMS5003;67697;50.750;-3.270;2023-02-28T10:22:20;5;3;
78408;PMS5003;67697;50.750;-3.270;2023-02-28T10:24:46;6;3;
78408;PMS5003;67697;50.750;-3.270;2023-02-28T10:27:13;6;6;
78408;PMS5003;67697;50.750;-3.270;2023-02-28T10:29:37;5;5;
78408;PMS5003;67697;50.750;-3.270;2023-02-28T10:32:03;6;6;
78408;PMS5003;67697;50.750;-3.270;2023-02-28T10:34:29;2;2;
78408;PMS5003;67697;50.750;-3.270;2023-02-28T10:36:54;3;3;
78408;PMS5003;67697;50.750;-3.270;2023-02-28T10:41:46;3;3;
78408;PMS5003;67697;50.750;-3.270;2023-02-28T10:44:13;5;5;
78408;PMS5003;67697;50.750;-3.270;2023-02-28T10:46:39;5;5;
78408;PMS5003;67697;50.750;-3.270;2023-02-28T10:49:04;6;6;
78408;PMS5003;67697;50.750;-3.270;2023-02-28T10:51:34;5;5;
78408;PMS5003;67697;50.750;-3.270;2023-02-28T10:53:55;7;7;
78408;PMS5003;67697;50.750;-3.270;2023-02-28T10:56:21;5;5;
78408;PMS5003;67697;50.750;-3.270;2023-02-28T10:58:49;7;7;
78408;PMS5003;67697;50.750;-3.270;2023-02-28T11:01:12;12;11;
78408;PMS5003;67697;50.750;-3.270;2023-02-28T11:03:37;6;6;
78408;PMS5003;67697;50.750;-3.270;2023-02-28T11:06:05;7;7;
78408;PMS5003;67697;50.750;-3.270;2023-02-28T11:08:29;8;6;
78408;PMS5003;67697;50.750;-3.270;2023-02-28T11:10:55;7;5;
78408;PMS5003;67697;50.750;-3.270;2023-02-28T11:13:21;5;3;
78408;PMS5003;67697;50.750;-3.270;2023-02-28T11:15:49;9;9;
78408;PMS5003;67697;50.750;-3.270;2023-02-28T11:18:19;6;6;
78408;PMS5003;67697;50.750;-3.270;2023-02-28T11:20:37;3;3;
78408;PMS5003;67697;50.750;-3.270;2023-02-28T11:23:03;6;6;
78408;PMS5003;67697;50.750;-3.270;2023-02-28T11:25:29;12;7;
78408;PMS5003;67697;50.750;-3.270;2023-02-28T11:27:55;11;10;
78408;PMS5003;67697;50.750;-3.270;2023-02-28T11:30:25;6;6;
78408;PMS5003;67697;50.750;-3.270;2023-02-28T11:32:48;10;8;
78408;PMS5003;67697;50.750;-3.270;2023-02-28T11:35:14;10;8;
78408;PMS5003;67697;50.750;-3.270;2023-02-28T11:37:37;11;8;
78408;PMS5003;67697;50.750;-3.270;2023-02-28T11:40:05;22;15;
78408;PMS5003;67697;50.750;-3.270;2023-02-28T11:42:38;12;10;
78408;PMS5003;67697;50.750;-3.270;2023-02-28T11:44:58;7;7;
78408;PMS5003;67697;50.750;-3.270;2023-02-28T11:47:21;8;8;
78408;PMS5003;67697;50.750;-3.270;2023-02-28T11:49:47;6;6;
78408;PMS5003;67697;50.750;-3.270;2023-02-28T11:52:15;7;7;
78408;PMS5003;67697;50.750;-3.270;2023-02-28T11:54:47;10;10;
78408;PMS5003;67697;50.750;-3.270;2023-02-28T11:57:06;11;6;
78408;PMS5003;67697;50.750;-3.270;2023-02-28T11:59:34;9;9;
78408;PMS5003;67697;50.750;-3.270;2023-02-28T12:02:00;8;8;
78408;PMS5003;67697;50.750;-3.270;2023-02-28T12:04:24;12;8;
78408;PMS5003;67697;50.750;-3.270;2023-02-28T12:06:46;8;8;
78408;PMS5003;67697;50.750;-3.270;2023-02-28T12:09:13;10;10;
78408;PMS5003;67697;50.750;-3.270;2023-02-28T12:11:39;11;9;
78408;PMS5003;67697;50.750;-3.270;2023-02-28T12:14:09;13;8;
78408;PMS5003;67697;50.750;-3.270;2023-02-28T12:18:58;9;9;
78408;PMS5003;67697;50.750;-3.270;2023-02-28T12:21:21;12;11;
78408;PMS5003;67697;50.750;-3.270;2023-02-28T12:23:49;11;11;
78408;PMS5003;67697;50.750;-3.270;2023-02-28T12:26:12;11;11;
78408;PMS5003;67697;50.750;-3.270;2023-02-28T12:28:38;14;11;
78408;PMS5003;67697;50.750;-3.270;2023-02-28T12:31:02;11;11;
78408;PMS5003;67697;50.750;-3.270;2023-02-28T12:33:28;11;8;
78408;PMS5003;67697;50.750;-3.270;2023-02-28T12:35:54;7;4;
78408;PMS5003;67697;50.750;-3.270;2023-02-28T12:38:18;9;8;
78408;PMS5003;67697;50.750;-3.270;2023-02-28T12:40:45;7;7;
78408;PMS5003;67697;50.750;-3.270;2023-02-28T12:43:09;8;7;
78408;PMS5003;67697;50.750;-3.270;2023-02-28T12:45:39;8;8;
78408;PMS5003;67697;50.750;-3.270;2023-02-28T12:48:02;6;6;
78408;PMS5003;67697;50.750;-3.270;2023-02-28T12:50:27;7;7;
78408;PMS5003;67697;50.750;-3.270;2023-02-28T12:52:54;8;7;
78408;PMS5003;67697;50.750;-3.270;2023-02-28T12:55:20;6;6;
78408;PMS5003;67697;50.750;-3.270;2023-02-28T12:57:46;9;8;
78408;PMS5003;67697;50.750;-3.270;2023-02-28T13:00:11;8;8;
78408;PMS5003;67697;50.750;-3.270;2023-02-28T13:02:43;7;7;
78408;PMS5003;67697;50.750;-3.270;2023-02-28T13:05:07;9;9;
78408;PMS5003;67697;50.750;-3.270;2023-02-28T13:07:35;7;7;
78408;PMS5003;67697;50.750;-3.270;2023-02-28T13:09:52;8;8;
78408;PMS5003;67697;50.750;-3.270;2023-02-28T13:12:18;7;7;
78408;PMS5003;67697;50.750;-3.270;2023-02-28T13:14:44;8;7;
78408;PMS5003;67697;50.750;-3.270;2023-02-28T13:17:10;9;8;
78408;PMS5003;67697;50.750;-3.270;2023-02-28T13:19:36;12;8;
78408;PMS5003;67697;50.750;-3.270;2023-02-28T13:22:01;11;11;
78408;PMS5003;67697;50.750;-3.270;2023-02-28T13:29:21;15;11;
78408;PMS5003;67697;50.750;-3.270;2023-02-28T13:34:13;11;11;
78408;PMS5003;67697;50.750;-3.270;2023-02-28T13:36:34;14;13;
78408;PMS5003;67697;50.750;-3.270;2023-02-28T13:39:00;13;11;
78408;PMS5003;67697;50.750;-3.270;2023-02-28T13:43:59;13;11;
78408;PMS5003;67697;50.750;-3.270;2023-02-28T13:46:16;16;13;
78408;PMS5003;67697;50.750;-3.270;2023-02-28T13:48:42;13;9;
78408;PMS5003;67697;50.750;-3.270;2023-02-28T13:53:45;11;11;
78408;PMS5003;67697;50.750;-3.270;2023-02-28T13:56:01;13;12;
78408;PMS5003;67697;50.750;-3.270;2023-02-28T13:58:35;13;13;
78408;PMS5003;67697;50.750;-3.270;2023-02-28T14:00:58;11;9;
78408;PMS5003;67697;50.750;-3.270;2023-02-28T14:03:22;13;12;
78408;PMS5003;67697;50.750;-3.270;2023-02-28T14:05:41;12;12;
78408;PMS5003;67697;50.750;-3.270;2023-02-28T14:08:08;12;12;
78408;PMS5003;67697;50.750;-3.270;2023-02-28T14:10:34;9;9;
78408;PMS5003;67697;50.750;-3.270;2023-02-28T14:13:00;9;9;
78408;PMS5003;67697;50.750;-3.270;2023-02-28T14:15:26;12;11;
78408;PMS5003;67697;50.750;-3.270;2023-02-28T14:17:50;14;12;
78408;PMS5003;67697;50.750;-3.270;2023-02-28T14:20:15;11;11;
78408;PMS5003;67697;50.750;-3.270;2023-02-28T14:22:45;14;12;
78408;PMS5003;67697;50.750;-3.270;2023-02-28T14:25:09;14;13;
78408;PMS5003;67697;50.750;-3.270;2023-02-28T14:27:35;11;11;
78408;PMS5003;67697;50.750;-3.270;2023-02-28T14:32:26;13;13;
78408;PMS5003;67697;50.750;-3.270;2023-02-28T14:34:50;11;11;
78408;PMS5003;67697;50.750;-3.270;2023-02-28T14:37:15;8;8;
78408;PMS5003;67697;50.750;-3.270;2023-02-28T14:39:40;9;9;
78408;PMS5003;67697;50.750;-3.270;2023-02-28T14:44:31;13;13;
78408;PMS5003;67697;50.750;-3.270;2023-02-28T14:46:57;16;13;
78408;PMS5003;67697;50.750;-3.270;2023-02-28T14:49:21;14;12;
78408;PMS5003;67697;50.750;-3.270;2023-02-28T14:51:48;17;16;
78408;PMS5003;67697;50.750;-3.270;2023-02-28T14:54:13;14;13;
78408;PMS5003;67697;50.750;-3.270;2023-02-28T14:56:38;17;15;
78408;PMS5003;67697;50.750;-3.270;2023-02-28T14:59:04;14;14;
78408;PMS5003;67697;50.750;-3.270;2023-02-28T15:01:29;14;11;
78408;PMS5003;67697;50.750;-3.270;2023-02-28T15:03:59;13;12;
78408;PMS5003;67697;50.750;-3.270;2023-02-28T15:06:20;9;9;
78408;PMS5003;67697;50.750;-3.270;2023-02-28T15:08:46;13;11;
78408;PMS5003;67697;50.750;-3.270;2023-02-28T15:11:13;12;11;
78408;PMS5003;67697;50.750;-3.270;2023-02-28T15:13:39;8;6;
78408;PMS5003;67697;50.750;-3.270;2023-02-28T15:16:03;11;9;
78408;PMS5003;67697;50.750;-3.270;2023-02-28T15:18:30;12;9;
78408;PMS5003;67697;50.750;-3.270;2023-02-28T15:20:54;14;9;
78408;PMS5003;67697;50.750;-3.270;2023-02-28T15:23:20;12;12;
78408;PMS5003;67697;50.750;-3.270;2023-02-28T15:25:46;9;9;
78408;PMS5003;67697;50.750;-3.270;2023-02-28T15:28:13;11;8;
78408;PMS5003;67697;50.750;-3.270;2023-02-28T15:30:37;11;11;
78408;PMS5003;67697;50.750;-3.270;2023-02-28T15:33:05;11;9;
78408;PMS5003;67697;50.750;-3.270;2023-02-28T15:35:29;7;7;
78408;PMS5003;67697;50.750;-3.270;2023-02-28T15:37:54;11;8;
78408;PMS5003;67697;50.750;-3.270;2023-02-28T15:40:22;12;11;
78408;PMS5003;67697;50.750;-3.270;2023-02-28T15:47:37;11;11;
78408;PMS5003;67697;50.750;-3.270;2023-02-28T15:50:03;8;8;
78408;PMS5003;67697;50.750;-3.270;2023-02-28T15:52:29;12;11;
78408;PMS5003;67697;50.750;-3.270;2023-02-28T15:54:54;12;11;
78408;PMS5003;67697;50.750;-3.270;2023-02-28T15:57:21;13;12;
78408;PMS5003;67697;50.750;-3.270;2023-02-28T15:59:49;11;8;
78408;PMS5003;67697;50.750;-3.270;2023-02-28T16:02:13;12;11;
78408;PMS5003;67697;50.750;-3.270;2023-02-28T16:04:37;7;7;
78408;PMS5003;67697;50.750;-3.270;2023-02-28T16:07:03;8;7;
78408;PMS5003;67697;50.750;-3.270;2023-02-28T16:09:28;8;7;
78408;PMS5003;67697;50.750;-3.270;2023-02-28T16:11:54;8;8;
78408;PMS5003;67697;50.750;-3.270;2023-02-28T16:14:21;9;8;
78408;PMS5003;67697;50.750;-3.270;2023-02-28T16:16:48;8;8;
78408;PMS5003;67697;50.750;-3.270;2023-02-28T16:19:12;7;7;
78408;PMS5003;67697;50.750;-3.270;2023-02-28T16:21:37;8;7;
78408;PMS5003;67697;50.750;-3.270;2023-02-28T16:24:03;11;8;
78408;PMS5003;67697;50.750;-3.270;2023-02-28T16:26:29;16;12;
78408;PMS5003;67697;50.750;-3.270;2023-02-28T16:28:55;8;7;
78408;PMS5003;67697;50.750;-3.270;2023-02-28T16:31:20;13;12;
78408;PMS5003;67697;50.750;-3.270;2023-02-28T16:33:46;16;15;
78408;PMS5003;67697;50.750;-3.270;2023-02-28T16:36:13;12;12;
78408;PMS5003;67697;50.750;-3.270;2023-02-28T16:38:37;10;10;